createdAt,value
2023-05-06T00:03:31.907Z,5.80
2023-05-06T00:07:46.495Z,5.82
2023-05-06T00:11:58.929Z,5.63
2023-05-06T00:16:11.633Z,5.22
2023-05-06T00:20:24.824Z,5.90
2023-05-06T00:24:37.202Z,5.30
2023-05-06T00:28:49.644Z,4.30
2023-05-06T00:33:02.083Z,4.03
2023-05-06T00:37:14.493Z,4.03
2023-05-06T00:41:31.537Z,3.72
2023-05-06T00:45:44.003Z,3.35
2023-05-06T00:49:56.807Z,3.22
2023-05-06T00:54:09.629Z,3.80
2023-05-06T00:58:22.779Z,3.50
2023-05-06T01:02:46.454Z,3.80
2023-05-06T01:07:17.931Z,3.45
2023-05-06T01:11:49.822Z,3.60
2023-05-06T01:16:05.236Z,3.33
2023-05-06T01:20:21.333Z,3.65
2023-05-06T01:24:37.539Z,3.38
2023-05-06T01:28:50.016Z,3.60
2023-05-06T01:33:29.960Z,3.03
2023-05-06T01:38:06.466Z,2.90
2023-05-06T01:42:20.765Z,2.60
2023-05-06T01:46:35.945Z,2.63
2023-05-06T01:50:48.738Z,2.65
2023-05-06T01:55:01.240Z,2.67
2023-05-06T01:59:13.789Z,3.10
2023-05-06T02:03:27.147Z,2.53
2023-05-06T02:07:39.965Z,2.63
2023-05-06T02:11:52.512Z,2.50
2023-05-06T02:16:05.219Z,2.70
2023-05-06T02:20:18.199Z,2.45
2023-05-06T02:24:32.271Z,2.80
2023-05-06T02:28:44.633Z,2.83
2023-05-06T02:32:58.548Z,2.67
2023-05-06T02:37:11.034Z,2.78
2023-05-06T02:41:23.401Z,2.42
2023-05-06T02:45:37.577Z,3.25
2023-05-06T02:49:49.992Z,2.80
2023-05-06T02:54:02.385Z,2.30
2023-05-06T02:58:14.757Z,2.40
2023-05-06T03:02:27.337Z,2.65
2023-05-06T03:06:39.685Z,2.42
2023-05-06T03:10:52.647Z,2.80
2023-05-06T03:15:07.613Z,2.75
2023-05-06T03:19:20.271Z,2.60
2023-05-06T03:23:39.080Z,2.88
2023-05-06T03:28:01.199Z,2.90
2023-05-06T03:32:15.720Z,2.78
2023-05-06T03:36:29.954Z,2.67
2023-05-06T03:40:42.771Z,2.75
2023-05-06T03:44:55.552Z,2.72
2023-05-06T03:49:09.116Z,2.90
2023-05-06T03:53:22.335Z,2.88
2023-05-06T03:57:36.473Z,2.97
2023-05-06T04:01:51.669Z,2.40
2023-05-06T04:06:04.825Z,2.58
2023-05-06T04:10:17.406Z,2.67
2023-05-06T04:14:34.140Z,2.63
2023-05-06T04:18:48.031Z,2.75
2023-05-06T04:23:02.516Z,2.35
2023-05-06T04:27:15.588Z,2.75
2023-05-06T04:31:30.585Z,2.70
2023-05-06T04:35:55.346Z,2.58
2023-05-06T04:40:11.991Z,2.20
2023-05-06T04:44:26.275Z,2.60
2023-05-06T04:48:39.848Z,2.30
2023-05-06T04:52:53.119Z,2.40
2023-05-06T04:57:06.610Z,2.33
2023-05-06T05:01:21.224Z,2.25
2023-05-06T05:05:35.026Z,2.20
2023-05-06T05:09:50.076Z,2.33
2023-05-06T05:14:06.173Z,2.00
2023-05-06T05:18:19.614Z,1.90
2023-05-06T05:22:34.072Z,2.15
2023-05-06T05:26:46.713Z,2.30
2023-05-06T05:31:06.932Z,1.92
2023-05-06T05:35:21.995Z,2.05
2023-05-06T05:39:36.767Z,2.00
2023-05-06T05:43:49.383Z,2.30
2023-05-06T05:48:01.847Z,1.92
2023-05-06T05:52:14.483Z,2.30
2023-05-06T05:56:27.891Z,2.58
2023-05-06T06:00:40.450Z,2.25
2023-05-06T06:04:57.714Z,3.55
2023-05-06T06:09:11.399Z,2.63
2023-05-06T06:13:26.583Z,2.50
2023-05-06T06:17:41.605Z,2.65
2023-05-06T06:21:54.357Z,2.60
2023-05-06T06:26:07.052Z,2.78
2023-05-06T06:30:19.544Z,3.42
2023-05-06T06:34:31.955Z,2.70
2023-05-06T06:38:44.447Z,5.95
2023-05-06T06:42:56.840Z,5.88
2023-05-06T06:47:32.421Z,5.55
2023-05-06T06:51:44.883Z,4.00
2023-05-06T06:55:57.298Z,4.97
2023-05-06T07:00:10.566Z,5.85
2023-05-06T07:04:23.074Z,5.40
2023-05-06T07:08:35.440Z,4.75
2023-05-06T07:12:47.866Z,5.13
2023-05-06T07:17:03.300Z,5.82
2023-05-06T07:21:15.889Z,5.13
2023-05-06T07:25:28.461Z,4.95
2023-05-06T07:29:41.603Z,4.57
2023-05-06T07:33:53.953Z,4.45
2023-05-06T07:38:08.878Z,4.85
2023-05-06T07:42:21.268Z,4.80
2023-05-06T07:46:34.173Z,3.95
2023-05-06T07:50:46.604Z,3.70
2023-05-06T07:54:59.164Z,4.22
2023-05-06T07:59:12.123Z,3.78
2023-05-06T08:03:24.933Z,4.28
2023-05-06T08:07:37.869Z,4.60
2023-05-06T08:11:51.244Z,4.75
2023-05-06T08:16:03.892Z,5.20
2023-05-06T08:20:16.470Z,4.93
2023-05-06T08:24:29.058Z,4.05
2023-05-06T08:28:41.756Z,5.00
2023-05-06T08:32:54.317Z,4.10
2023-05-06T08:37:06.679Z,4.22
2023-05-06T08:41:22.657Z,3.58
2023-05-06T08:45:35.199Z,3.47
2023-05-06T08:49:48.109Z,3.70
2023-05-06T08:54:05.039Z,4.25
2023-05-06T08:58:18.756Z,3.08
2023-05-06T09:02:31.308Z,2.70
2023-05-06T09:06:43.836Z,2.72
2023-05-06T09:10:57.107Z,3.38
2023-05-06T09:15:10.764Z,3.80
2023-05-06T09:19:23.626Z,3.80
2023-05-06T09:23:38.973Z,4.43
2023-05-06T09:28:04.875Z,4.57
2023-05-06T09:32:18.324Z,4.30
2023-05-06T09:36:30.749Z,4.15
2023-05-06T09:40:43.843Z,4.28
2023-05-06T09:45:02.194Z,4.40
2023-05-06T09:49:15.527Z,3.83
2023-05-06T09:53:29.449Z,3.53
2023-05-06T09:57:42.586Z,3.50
2023-05-06T10:01:55.941Z,3.55
2023-05-06T10:06:11.969Z,4.00
2023-05-06T10:10:26.201Z,4.03
2023-05-06T10:14:39.205Z,3.85
2023-05-06T10:18:55.653Z,4.00
2023-05-06T10:23:38.220Z,3.88
2023-05-06T10:27:51.535Z,3.83
2023-05-06T10:32:05.997Z,4.18
2023-05-06T10:36:29.108Z,3.28
2023-05-06T10:40:42.721Z,2.95
2023-05-06T10:44:58.364Z,3.30
2023-05-06T10:49:16.715Z,2.67
2023-05-06T10:54:04.944Z,2.63
2023-05-06T10:58:19.575Z,2.42
2023-05-06T11:02:32.420Z,2.67
2023-05-06T11:06:47.458Z,2.70
2023-05-06T11:10:59.853Z,2.20
2023-05-06T11:15:22.019Z,2.20
2023-05-06T11:19:38.422Z,2.55
2023-05-06T11:23:59.774Z,2.55
2023-05-06T11:28:13.974Z,2.60
2023-05-06T11:32:29.850Z,2.38
2023-05-06T11:36:51.497Z,2.65
2023-05-06T11:41:03.996Z,1.83
2023-05-06T11:45:17.139Z,2.03
2023-05-06T11:49:29.688Z,2.25
2023-05-06T11:53:42.386Z,2.30
2023-05-06T11:57:55.327Z,2.45
2023-05-06T12:02:14.052Z,2.58
2023-05-06T12:06:36.767Z,2.15
2023-05-06T12:10:50.144Z,2.53
2023-05-06T12:15:04.145Z,2.50
2023-05-06T12:19:18.609Z,2.50
2023-05-06T12:23:31.322Z,2.35
2023-05-06T12:27:44.002Z,2.72
2023-05-06T12:32:16.603Z,2.60
2023-05-06T12:36:29.559Z,2.40
2023-05-06T12:40:43.335Z,2.08
2023-05-06T12:44:56.591Z,2.13
2023-05-06T12:49:09.032Z,2.30
2023-05-06T12:53:36.032Z,2.10
2023-05-06T12:57:51.828Z,2.25
2023-05-06T13:02:05.721Z,2.10
2023-05-06T13:06:18.044Z,2.42
2023-05-06T13:10:30.904Z,2.50
2023-05-06T13:14:43.295Z,2.50
2023-05-06T13:18:55.875Z,2.20
2023-05-06T13:23:08.458Z,2.20
2023-05-06T13:27:21.253Z,2.67
2023-05-06T13:31:35.033Z,2.13
2023-05-06T13:35:47.391Z,2.05
2023-05-06T13:39:59.694Z,2.28
2023-05-06T13:44:12.080Z,2.00
2023-05-06T13:48:24.578Z,2.40
2023-05-06T13:52:37.033Z,3.20
2023-05-06T13:56:49.493Z,2.88
2023-05-06T14:01:02.151Z,2.88
2023-05-06T14:05:15.913Z,4.05
2023-05-06T14:09:28.435Z,3.67
2023-05-06T14:13:41.372Z,3.65
2023-05-06T14:17:54.424Z,4.07
2023-05-06T14:22:06.963Z,3.72
2023-05-06T14:26:19.358Z,3.53
2023-05-06T14:30:32.753Z,3.33
2023-05-06T14:34:45.178Z,3.50
2023-05-06T14:38:57.563Z,4.03
2023-05-06T14:43:10.211Z,3.75
2023-05-06T14:47:22.891Z,4.35
2023-05-06T14:51:35.452Z,3.58
2023-05-06T14:55:49.120Z,3.42
2023-05-06T15:00:09.280Z,3.35
2023-05-06T15:04:21.828Z,3.20
2023-05-06T15:08:36.378Z,3.35
2023-05-06T15:12:48.808Z,3.60
2023-05-06T15:17:01.350Z,3.88
2023-05-06T15:21:14.221Z,3.58
2023-05-06T15:25:34.870Z,4.05
2023-05-06T15:29:47.920Z,4.00
2023-05-06T15:34:00.877Z,3.70
2023-05-06T15:38:13.418Z,3.92
2023-05-06T15:42:26.004Z,3.65
2023-05-06T15:46:39.521Z,3.70
2023-05-06T15:50:51.843Z,3.50
2023-05-06T15:55:05.285Z,3.85
2023-05-06T15:59:17.775Z,3.70
2023-05-06T16:03:31.051Z,3.60
2023-05-06T16:07:44.096Z,3.58
2023-05-06T16:11:56.533Z,3.53
2023-05-06T16:16:08.933Z,3.83
2023-05-06T16:20:21.510Z,3.50
2023-05-06T16:24:33.879Z,3.95
2023-05-06T16:28:46.377Z,4.00
2023-05-06T16:32:59.005Z,3.78
2023-05-06T16:37:11.427Z,3.90
2023-05-06T16:41:23.952Z,4.50
2023-05-06T16:45:36.539Z,3.55
2023-05-06T16:49:49.710Z,3.88
2023-05-06T16:54:02.398Z,3.90
2023-05-06T16:58:14.877Z,3.88
2023-05-06T17:02:27.434Z,3.58
2023-05-06T17:06:40.055Z,3.88
2023-05-06T17:10:52.460Z,3.97
2023-05-06T17:15:05.965Z,4.15
2023-05-06T17:19:18.535Z,4.68
2023-05-06T17:23:31.026Z,4.55
2023-05-06T17:27:43.396Z,4.20
2023-05-06T17:31:55.851Z,4.57
2023-05-06T17:36:08.344Z,5.57
2023-05-06T17:40:20.960Z,4.35
2023-05-06T17:44:35.595Z,4.53
2023-05-06T17:48:48.338Z,4.60
2023-05-06T17:53:00.809Z,4.95
2023-05-06T17:57:13.197Z,6.40
2023-05-06T18:01:25.477Z,6.63
2023-05-06T18:05:38.042Z,6.38
2023-05-06T18:09:52.325Z,5.70
2023-05-06T18:14:05.762Z,5.72
2023-05-06T18:18:18.108Z,5.60
2023-05-06T18:22:30.764Z,5.45
2023-05-06T18:26:44.534Z,5.30
2023-05-06T18:30:57.736Z,5.00
2023-05-06T18:35:13.114Z,5.97
2023-05-06T18:39:27.194Z,5.85
2023-05-06T18:43:39.561Z,6.25
2023-05-06T18:47:52.054Z,5.93
2023-05-06T18:52:04.966Z,6.97
2023-05-06T18:56:18.509Z,8.00
2023-05-06T19:00:31.834Z,8.90
2023-05-06T19:04:44.536Z,9.25
2023-05-06T19:08:57.108Z,8.30
2023-05-06T19:13:09.727Z,9.32
2023-05-06T19:17:22.341Z,9.57
2023-05-06T19:21:35.834Z,9.35
2023-05-06T19:25:48.292Z,9.15
2023-05-06T19:30:00.734Z,9.50
2023-05-06T19:34:13.184Z,7.95
2023-05-06T19:38:25.642Z,8.38
2023-05-06T19:42:38.107Z,9.40
2023-05-06T19:46:54.772Z,8.85
2023-05-06T19:51:07.197Z,7.55
2023-05-06T19:55:20.084Z,7.32
2023-05-06T19:59:32.487Z,6.53
2023-05-06T20:03:45.830Z,7.30
2023-05-06T20:08:01.714Z,7.60
2023-05-06T20:12:14.131Z,7.75
2023-05-06T20:16:26.586Z,7.20
2023-05-06T20:20:40.262Z,7.35
2023-05-06T20:24:53.372Z,6.80
2023-05-06T20:29:05.809Z,6.57
2023-05-06T20:33:18.309Z,6.82
2023-05-06T20:37:31.686Z,6.55
2023-05-06T20:41:44.056Z,6.72
2023-05-06T20:45:56.603Z,6.65
2023-05-06T20:50:11.797Z,6.47
2023-05-06T20:54:24.171Z,7.10
2023-05-06T20:58:36.620Z,6.20
2023-05-06T21:02:49.811Z,6.18
2023-05-06T21:07:02.374Z,6.53
2023-05-06T21:11:14.932Z,6.43
2023-05-06T21:15:27.251Z,6.20
2023-05-06T21:19:39.609Z,6.43
2023-05-06T21:23:52.078Z,6.97
2023-05-06T21:28:06.495Z,6.97
2023-05-06T21:32:19.120Z,6.85
2023-05-06T21:36:31.528Z,7.15
2023-05-06T21:40:43.912Z,6.13
2023-05-06T21:44:56.605Z,6.32
2023-05-06T21:49:09.078Z,6.55
2023-05-06T21:53:21.465Z,7.95
2023-05-06T21:57:34.123Z,8.75
2023-05-06T22:01:46.470Z,9.30
2023-05-06T22:05:58.769Z,9.88
2023-05-06T22:10:11.987Z,10.05
2023-05-06T22:14:27.033Z,9.20
2023-05-06T22:18:42.984Z,6.97
2023-05-06T22:22:55.370Z,7.97
2023-05-06T22:27:08.946Z,6.80
2023-05-06T22:31:22.497Z,6.53
2023-05-06T22:35:34.977Z,7.18
2023-05-06T22:39:47.868Z,7.97
2023-05-06T22:44:00.904Z,7.20
2023-05-06T22:48:13.514Z,7.40
2023-05-06T22:52:25.896Z,7.63
2023-05-06T22:56:38.383Z,7.90
2023-05-06T23:00:50.782Z,8.23
2023-05-06T23:05:03.304Z,8.27
2023-05-06T23:09:15.846Z,7.65
2023-05-06T23:13:28.343Z,9.55
2023-05-06T23:17:40.820Z,10.45
2023-05-06T23:21:53.675Z,10.57
2023-05-06T23:26:07.416Z,10.85
2023-05-06T23:30:19.816Z,9.88
2023-05-06T23:34:32.145Z,10.80
2023-05-06T23:38:44.763Z,11.20
2023-05-06T23:42:57.148Z,11.23
2023-05-06T23:47:09.548Z,11.68
2023-05-06T23:51:21.811Z,11.05
2023-05-06T23:55:34.191Z,11.15
2023-05-06T23:59:46.574Z,12.15
